sensor_id;sensor_type;location;lat;lon;timestamp;pressure;altitude;pressure_sealevel;temperature;humidity
74868;BME280;63419;42.262;12.210;2022-11-15T00:02:07;97891.53;;;10.94;100.00
74868;BME280;63419;42.262;12.210;2022-11-15T00:04:35;97889.09;;;12.45;100.00
74868;BME280;63419;42.262;12.210;2022-11-15T00:07:04;97881.69;;;12.66;100.00
74868;BME280;63419;42.262;12.210;2022-11-15T00:09:32;97877.03;;;12.84;100.00
74868;BME280;63419;42.262;12.210;2022-11-15T00:12:02;97887.72;;;10.71;100.00
74868;BME280;63419;42.262;12.210;2022-11-15T00:14:35;97874.88;;;12.25;100.00
74868;BME280;63419;42.262;12.210;2022-11-15T00:17:03;97867.06;;;12.12;100.00
74868;BME280;63419;42.262;12.210;2022-11-15T00:19:30;97871.22;;;12.14;100.00
74868;BME280;63419;42.262;12.210;2022-11-15T00:21:59;97869.72;;;12.25;100.00
74868;BME280;63419;42.262;12.210;2022-11-15T00:24:27;97878.06;;;13.07;100.00
74868;BME280;63419;42.262;12.210;2022-11-15T00:26:57;97876.38;;;13.06;100.00
74868;BME280;63419;42.262;12.210;2022-11-15T00:29:27;97870.47;;;13.04;100.00
74868;BME280;63419;42.262;12.210;2022-11-15T00:31:57;97875.72;;;12.38;100.00
74868;BME280;63419;42.262;12.210;2022-11-15T00:34:27;97869.84;;;12.62;100.00
74868;BME280;63419;42.262;12.210;2022-11-15T00:36:55;97866.22;;;13.03;100.00
74868;BME280;63419;42.262;12.210;2022-11-15T00:39:29;97870.19;;;12.70;100.00
74868;BME280;63419;42.262;12.210;2022-11-15T00:41:59;97868.72;;;13.04;100.00
74868;BME280;63419;42.262;12.210;2022-11-15T00:44:30;97866.44;;;12.87;100.00
74868;BME280;63419;42.262;12.210;2022-11-15T00:46:58;97868.53;;;12.82;100.00
74868;BME280;63419;42.262;12.210;2022-11-15T00:49:30;97861.59;;;12.69;100.00
74868;BME280;63419;42.262;12.210;2022-11-15T00:51:57;97856.44;;;12.29;100.00
74868;BME280;63419;42.262;12.210;2022-11-15T00:54:26;97857.03;;;12.07;100.00
74868;BME280;63419;42.262;12.210;2022-11-15T00:56:56;97849.94;;;12.36;100.00
74868;BME280;63419;42.262;12.210;2022-11-15T00:59:27;97854.00;;;12.41;100.00
74868;BME280;63419;42.262;12.210;2022-11-15T01:01:54;97855.03;;;12.38;100.00
74868;BME280;63419;42.262;12.210;2022-11-15T01:04:21;97864.75;;;12.47;100.00
74868;BME280;63419;42.262;12.210;2022-11-15T01:06:52;97858.44;;;12.38;100.00
74868;BME280;63419;42.262;12.210;2022-11-15T01:09:24;97856.00;;;12.23;100.00
74868;BME280;63419;42.262;12.210;2022-11-15T01:11:57;97853.84;;;12.16;100.00
74868;BME280;63419;42.262;12.210;2022-11-15T01:14:25;97860.72;;;12.03;100.00
74868;BME280;63419;42.262;12.210;2022-11-15T01:16:53;97852.97;;;12.56;100.00
74868;BME280;63419;42.262;12.210;2022-11-15T01:19:22;97849.03;;;12.76;100.00
74868;BME280;63419;42.262;12.210;2022-11-15T01:21:50;97851.75;;;12.87;100.00
74868;BME280;63419;42.262;12.210;2022-11-15T01:24:18;97850.28;;;12.96;100.00
74868;BME280;63419;42.262;12.210;2022-11-15T01:26:51;97850.91;;;12.74;100.00
74868;BME280;63419;42.262;12.210;2022-11-15T01:29:23;97846.66;;;12.60;100.00
74868;BME280;63419;42.262;12.210;2022-11-15T01:31:54;97852.78;;;12.72;100.00
74868;BME280;63419;42.262;12.210;2022-11-15T01:34:24;97842.50;;;12.57;100.00
74868;BME280;63419;42.262;12.210;2022-11-15T01:36:53;97842.19;;;12.49;100.00
74868;BME280;63419;42.262;12.210;2022-11-15T01:39:21;97849.03;;;12.37;100.00
74868;BME280;63419;42.262;12.210;2022-11-15T01:41:50;97840.34;;;12.51;100.00
74868;BME280;63419;42.262;12.210;2022-11-15T01:45:02;97839.91;;;12.32;100.00
74868;BME280;63419;42.262;12.210;2022-11-15T01:47:40;97833.13;;;11.76;100.00
74868;BME280;63419;42.262;12.210;2022-11-15T01:50:24;97832.28;;;11.34;100.00
74868;BME280;63419;42.262;12.210;2022-11-15T01:53:04;97823.78;;;11.74;100.00
74868;BME280;63419;42.262;12.210;2022-11-15T01:55:36;97816.47;;;11.53;100.00
74868;BME280;63419;42.262;12.210;2022-11-15T01:58:05;97821.09;;;11.75;100.00
74868;BME280;63419;42.262;12.210;2022-11-15T02:00:34;97810.88;;;11.87;100.00
74868;BME280;63419;42.262;12.210;2022-11-15T02:03:09;97809.34;;;12.37;100.00
74868;BME280;63419;42.262;12.210;2022-11-15T02:05:43;97811.97;;;12.63;100.00
74868;BME280;63419;42.262;12.210;2022-11-15T02:08:11;97812.38;;;12.44;100.00
74868;BME280;63419;42.262;12.210;2022-11-15T02:10:50;97812.72;;;11.99;100.00
74868;BME280;63419;42.262;12.210;2022-11-15T02:13:18;97836.78;;;9.84;100.00
74868;BME280;63419;42.262;12.210;2022-11-15T02:19:20;97819.13;;;11.10;100.00
74868;BME280;63419;42.262;12.210;2022-11-15T02:31:53;97805.84;;;12.25;100.00
74868;BME280;63419;42.262;12.210;2022-11-15T02:40:23;97807.91;;;11.66;100.00
74868;BME280;63419;42.262;12.210;2022-11-15T02:43:01;97810.09;;;11.59;100.00
74868;BME280;63419;42.262;12.210;2022-11-15T02:48:48;97796.19;;;12.14;100.00
74868;BME280;63419;42.262;12.210;2022-11-15T02:51:29;97791.56;;;12.45;100.00
74868;BME280;63419;42.262;12.210;2022-11-15T02:53:56;97787.84;;;12.49;100.00
74868;BME280;63419;42.262;12.210;2022-11-15T02:56:23;97795.28;;;12.54;100.00
74868;BME280;63419;42.262;12.210;2022-11-15T02:59:24;97789.50;;;12.50;100.00
74868;BME280;63419;42.262;12.210;2022-11-15T03:05:34;97798.81;;;11.87;100.00
74868;BME280;63419;42.262;12.210;2022-11-15T03:08:32;97787.69;;;11.72;100.00
74868;BME280;63419;42.262;12.210;2022-11-15T03:11:24;97787.50;;;11.07;100.00
74868;BME280;63419;42.262;12.210;2022-11-15T03:14:34;97780.16;;;11.55;100.00
74868;BME280;63419;42.262;12.210;2022-11-15T03:19:55;97783.47;;;11.30;100.00
74868;BME280;63419;42.262;12.210;2022-11-15T03:22:36;97793.38;;;11.77;100.00
74868;BME280;63419;42.262;12.210;2022-11-15T03:25:09;97789.94;;;12.44;100.00
74868;BME280;63419;42.262;12.210;2022-11-15T03:27:44;97779.47;;;12.59;100.00
74868;BME280;63419;42.262;12.210;2022-11-15T03:30:15;97778.91;;;12.79;100.00
74868;BME280;63419;42.262;12.210;2022-11-15T03:32:56;97780.00;;;13.01;100.00
74868;BME280;63419;42.262;12.210;2022-11-15T03:35:35;97787.22;;;13.34;100.00
74868;BME280;63419;42.262;12.210;2022-11-15T03:38:29;97788.03;;;13.35;100.00
74868;BME280;63419;42.262;12.210;2022-11-15T03:43:59;97788.94;;;13.70;100.00
74868;BME280;63419;42.262;12.210;2022-11-15T03:46:53;97784.59;;;13.71;100.00
74868;BME280;63419;42.262;12.210;2022-11-15T03:49:31;97781.88;;;14.08;100.00
74868;BME280;63419;42.262;12.210;2022-11-15T03:52:11;97783.31;;;13.77;100.00
74868;BME280;63419;42.262;12.210;2022-11-15T03:54:56;97784.81;;;14.03;100.00
74868;BME280;63419;42.262;12.210;2022-11-15T03:57:25;97781.75;;;14.09;100.00
74868;BME280;63419;42.262;12.210;2022-11-15T03:59:53;97785.44;;;13.35;100.00
74868;BME280;63419;42.262;12.210;2022-11-15T04:02:23;97787.53;;;14.02;100.00
74868;BME280;63419;42.262;12.210;2022-11-15T04:04:51;97778.13;;;13.77;100.00
74868;BME280;63419;42.262;12.210;2022-11-15T04:07:20;97784.31;;;13.87;100.00
74868;BME280;63419;42.262;12.210;2022-11-15T04:09:50;97788.06;;;13.22;100.00
74868;BME280;63419;42.262;12.210;2022-11-15T04:12:39;97791.03;;;12.91;100.00
74868;BME280;63419;42.262;12.210;2022-11-15T04:15:18;97783.94;;;13.19;100.00
74868;BME280;63419;42.262;12.210;2022-11-15T04:17:56;97776.78;;;13.95;100.00
74868;BME280;63419;42.262;12.210;2022-11-15T04:20:34;97774.94;;;14.08;100.00
74868;BME280;63419;42.262;12.210;2022-11-15T04:23:22;97767.34;;;14.52;100.00
74868;BME280;63419;42.262;12.210;2022-11-15T04:26:16;97759.66;;;14.28;100.00
74868;BME280;63419;42.262;12.210;2022-11-15T04:28:45;97759.31;;;13.38;100.00
74868;BME280;63419;42.262;12.210;2022-11-15T04:31:34;97761.47;;;14.03;100.00
74868;BME280;63419;42.262;12.210;2022-11-15T04:34:07;97767.84;;;13.99;100.00
74868;BME280;63419;42.262;12.210;2022-11-15T04:36:35;97759.38;;;14.31;100.00
74868;BME280;63419;42.262;12.210;2022-11-15T04:39:21;97755.59;;;14.24;100.00
74868;BME280;63419;42.262;12.210;2022-11-15T04:41:49;97751.91;;;14.04;100.00
74868;BME280;63419;42.262;12.210;2022-11-15T04:44:16;97741.91;;;14.22;100.00
74868;BME280;63419;42.262;12.210;2022-11-15T04:46:43;97730.56;;;14.12;100.00
74868;BME280;63419;42.262;12.210;2022-11-15T04:49:13;97729.88;;;13.74;100.00
74868;BME280;63419;42.262;12.210;2022-11-15T04:51:49;97733.41;;;14.08;100.00
74868;BME280;63419;42.262;12.210;2022-11-15T04:54:16;97729.44;;;14.27;100.00
74868;BME280;63419;42.262;12.210;2022-11-15T04:56:46;97733.53;;;14.18;100.00
74868;BME280;63419;42.262;12.210;2022-11-15T04:59:22;97738.13;;;13.44;100.00
74868;BME280;63419;42.262;12.210;2022-11-15T05:01:52;97739.41;;;13.62;100.00
74868;BME280;63419;42.262;12.210;2022-11-15T05:04:22;97756.06;;;13.71;100.00
74868;BME280;63419;42.262;12.210;2022-11-15T05:06:51;97750.44;;;13.88;100.00
74868;BME280;63419;42.262;12.210;2022-11-15T05:09:21;97734.19;;;13.14;100.00
74868;BME280;63419;42.262;12.210;2022-11-15T05:11:51;97732.34;;;12.66;100.00
74868;BME280;63419;42.262;12.210;2022-11-15T05:14:20;97749.63;;;12.66;100.00
74868;BME280;63419;42.262;12.210;2022-11-15T05:16:57;97748.06;;;13.13;100.00
74868;BME280;63419;42.262;12.210;2022-11-15T05:19:26;97745.28;;;13.16;100.00
74868;BME280;63419;42.262;12.210;2022-11-15T05:21:58;97747.75;;;13.18;100.00
74868;BME280;63419;42.262;12.210;2022-11-15T05:24:32;97757.53;;;13.38;100.00
74868;BME280;63419;42.262;12.210;2022-11-15T05:27:04;97766.91;;;12.65;100.00
74868;BME280;63419;42.262;12.210;2022-11-15T05:29:32;97770.13;;;12.17;100.00
74868;BME280;63419;42.262;12.210;2022-11-15T05:32:01;97763.06;;;13.21;100.00
74868;BME280;63419;42.262;12.210;2022-11-15T05:34:32;97759.59;;;13.70;100.00
74868;BME280;63419;42.262;12.210;2022-11-15T05:37:05;97753.53;;;13.94;100.00
74868;BME280;63419;42.262;12.210;2022-11-15T05:39:35;97766.81;;;12.54;100.00
74868;BME280;63419;42.262;12.210;2022-11-15T05:42:12;97756.28;;;12.44;100.00
74868;BME280;63419;42.262;12.210;2022-11-15T05:44:46;97754.19;;;13.49;100.00
74868;BME280;63419;42.262;12.210;2022-11-15T05:47:20;97751.66;;;13.60;100.00
74868;BME280;63419;42.262;12.210;2022-11-15T05:49:53;97746.09;;;13.17;100.00
74868;BME280;63419;42.262;12.210;2022-11-15T05:52:34;97754.00;;;13.02;100.00
74868;BME280;63419;42.262;12.210;2022-11-15T05:55:10;97755.31;;;13.33;100.00
74868;BME280;63419;42.262;12.210;2022-11-15T05:57:41;97752.31;;;12.77;100.00
74868;BME280;63419;42.262;12.210;2022-11-15T06:00:08;97777.25;;;11.47;100.00
74868;BME280;63419;42.262;12.210;2022-11-15T06:02:40;97769.91;;;12.21;100.00
74868;BME280;63419;42.262;12.210;2022-11-15T06:05:09;97771.59;;;12.22;100.00
74868;BME280;63419;42.262;12.210;2022-11-15T06:07:43;97778.13;;;13.16;100.00
74868;BME280;63419;42.262;12.210;2022-11-15T06:10:11;97769.81;;;13.60;100.00
74868;BME280;63419;42.262;12.210;2022-11-15T06:12:40;97776.91;;;13.69;100.00
74868;BME280;63419;42.262;12.210;2022-11-15T06:15:09;97772.28;;;13.97;100.00
74868;BME280;63419;42.262;12.210;2022-11-15T06:17:36;97773.38;;;14.06;100.00
74868;BME280;63419;42.262;12.210;2022-11-15T06:20:04;97768.78;;;13.98;100.00
74868;BME280;63419;42.262;12.210;2022-11-15T06:22:40;97772.06;;;14.00;100.00
74868;BME280;63419;42.262;12.210;2022-11-15T06:25:08;97777.53;;;14.08;100.00
74868;BME280;63419;42.262;12.210;2022-11-15T06:27:35;97770.91;;;14.04;100.00
74868;BME280;63419;42.262;12.210;2022-11-15T06:30:08;97773.47;;;13.93;100.00
74868;BME280;63419;42.262;12.210;2022-11-15T06:32:37;97774.22;;;14.06;100.00
74868;BME280;63419;42.262;12.210;2022-11-15T06:35:11;97776.78;;;13.95;100.00
74868;BME280;63419;42.262;12.210;2022-11-15T06:37:41;97770.75;;;14.53;100.00
74868;BME280;63419;42.262;12.210;2022-11-15T06:40:11;97778.72;;;14.96;100.00
74868;BME280;63419;42.262;12.210;2022-11-15T06:42:42;97772.31;;;15.12;100.00
74868;BME280;63419;42.262;12.210;2022-11-15T06:45:19;97764.94;;;15.39;100.00
74868;BME280;63419;42.262;12.210;2022-11-15T06:47:47;97763.59;;;15.45;100.00
74868;BME280;63419;42.262;12.210;2022-11-15T06:50:19;97760.81;;;15.69;100.00
74868;BME280;63419;42.262;12.210;2022-11-15T06:52:46;97777.84;;;14.04;100.00
74868;BME280;63419;42.262;12.210;2022-11-15T06:55:16;97783.09;;;13.31;100.00
74868;BME280;63419;42.262;12.210;2022-11-15T06:57:52;97776.22;;;14.95;100.00
74868;BME280;63419;42.262;12.210;2022-11-15T07:00:21;97765.03;;;15.38;100.00
74868;BME280;63419;42.262;12.210;2022-11-15T07:02:54;97764.84;;;15.30;100.00
74868;BME280;63419;42.262;12.210;2022-11-15T07:05:22;97752.81;;;15.06;100.00
74868;BME280;63419;42.262;12.210;2022-11-15T07:07:54;97749.84;;;15.66;100.00
74868;BME280;63419;42.262;12.210;2022-11-15T07:10:26;97745.78;;;15.73;100.00
74868;BME280;63419;42.262;12.210;2022-11-15T07:12:56;97754.41;;;15.85;100.00
74868;BME280;63419;42.262;12.210;2022-11-15T07:15:26;97753.56;;;15.84;100.00
74868;BME280;63419;42.262;12.210;2022-11-15T07:17:53;97767.63;;;14.14;100.00
74868;BME280;63419;42.262;12.210;2022-11-15T07:20:20;97770.09;;;14.96;100.00
74868;BME280;63419;42.262;12.210;2022-11-15T07:22:47;97764.38;;;15.13;100.00
74868;BME280;63419;42.262;12.210;2022-11-15T07:25:16;97765.84;;;14.95;100.00
74868;BME280;63419;42.262;12.210;2022-11-15T07:27:59;97762.31;;;14.73;100.00
74868;BME280;63419;42.262;12.210;2022-11-15T07:30:39;97772.19;;;14.79;100.00
74868;BME280;63419;42.262;12.210;2022-11-15T07:33:20;97766.28;;;15.22;100.00
74868;BME280;63419;42.262;12.210;2022-11-15T07:35:51;97766.75;;;15.16;100.00
74868;BME280;63419;42.262;12.210;2022-11-15T07:38:18;97760.88;;;14.92;100.00
74868;BME280;63419;42.262;12.210;2022-11-15T07:41:00;97759.53;;;15.64;100.00
74868;BME280;63419;42.262;12.210;2022-11-15T07:43:30;97757.66;;;16.19;100.00
74868;BME280;63419;42.262;12.210;2022-11-15T07:46:14;97757.25;;;15.82;100.00
74868;BME280;63419;42.262;12.210;2022-11-15T07:48:43;97750.16;;;15.72;100.00
74868;BME280;63419;42.262;12.210;2022-11-15T07:51:16;97749.69;;;16.72;100.00
74868;BME280;63419;42.262;12.210;2022-11-15T07:53:45;97744.28;;;16.95;100.00
74868;BME280;63419;42.262;12.210;2022-11-15T07:56:13;97743.34;;;16.86;100.00
74868;BME280;63419;42.262;12.210;2022-11-15T07:58:41;97745.31;;;17.13;100.00
74868;BME280;63419;42.262;12.210;2022-11-15T08:01:09;97747.13;;;17.23;100.00
74868;BME280;63419;42.262;12.210;2022-11-15T08:03:39;97754.03;;;16.62;100.00
74868;BME280;63419;42.262;12.210;2022-11-15T08:06:07;97754.31;;;16.38;100.00
74868;BME280;63419;42.262;12.210;2022-11-15T08:08:35;97750.47;;;17.83;100.00
74868;BME280;63419;42.262;12.210;2022-11-15T08:11:07;97746.44;;;18.38;100.00
74868;BME280;63419;42.262;12.210;2022-11-15T08:13:41;97744.16;;;17.96;100.00
74868;BME280;63419;42.262;12.210;2022-11-15T08:16:12;97745.25;;;17.64;100.00
74868;BME280;63419;42.262;12.210;2022-11-15T08:18:43;97739.31;;;18.11;100.00
74868;BME280;63419;42.262;12.210;2022-11-15T08:21:19;97737.75;;;18.47;100.00
74868;BME280;63419;42.262;12.210;2022-11-15T08:23:57;97747.16;;;17.81;100.00
74868;BME280;63419;42.262;12.210;2022-11-15T08:26:27;97747.31;;;17.50;100.00
74868;BME280;63419;42.262;12.210;2022-11-15T08:28:58;97755.09;;;14.88;100.00
74868;BME280;63419;42.262;12.210;2022-11-15T08:31:26;97757.66;;;14.54;100.00
74868;BME280;63419;42.262;12.210;2022-11-15T08:33:53;97764.88;;;14.04;100.00
74868;BME280;63419;42.262;12.210;2022-11-15T08:36:27;97759.47;;;13.71;100.00
74868;BME280;63419;42.262;12.210;2022-11-15T08:39:16;97746.06;;;15.26;100.00
74868;BME280;63419;42.262;12.210;2022-11-15T08:41:46;97768.50;;;13.90;100.00
74868;BME280;63419;42.262;12.210;2022-11-15T08:44:19;97763.13;;;13.45;100.00
74868;BME280;63419;42.262;12.210;2022-11-15T08:46:47;97745.31;;;15.79;100.00
74868;BME280;63419;42.262;12.210;2022-11-15T08:49:16;97740.13;;;17.13;100.00
74868;BME280;63419;42.262;12.210;2022-11-15T08:51:45;97741.25;;;17.40;100.00
74868;BME280;63419;42.262;12.210;2022-11-15T08:54:12;97715.63;;;18.32;100.00
74868;BME280;63419;42.262;12.210;2022-11-15T08:56:40;97724.53;;;19.32;100.00
74868;BME280;63419;42.262;12.210;2022-11-15T08:59:12;97732.44;;;18.67;100.00
74868;BME280;63419;42.262;12.210;2022-11-15T09:01:40;97721.75;;;18.50;100.00
74868;BME280;63419;42.262;12.210;2022-11-15T09:04:10;97722.34;;;18.44;100.00
74868;BME280;63419;42.262;12.210;2022-11-15T09:06:42;97718.38;;;18.40;100.00
74868;BME280;63419;42.262;12.210;2022-11-15T09:09:23;97717.97;;;18.35;100.00
74868;BME280;63419;42.262;12.210;2022-11-15T09:11:50;97722.81;;;18.30;100.00
74868;BME280;63419;42.262;12.210;2022-11-15T09:14:23;97733.72;;;18.80;100.00
74868;BME280;63419;42.262;12.210;2022-11-15T09:16:51;97727.97;;;18.77;100.00
74868;BME280;63419;42.262;12.210;2022-11-15T09:19:18;97718.25;;;18.32;100.00
74868;BME280;63419;42.262;12.210;2022-11-15T09:21:47;97731.44;;;18.30;100.00
74868;BME280;63419;42.262;12.210;2022-11-15T09:24:17;97728.78;;;19.15;100.00
74868;BME280;63419;42.262;12.210;2022-11-15T09:26:51;97733.16;;;17.63;100.00
74868;BME280;63419;42.262;12.210;2022-11-15T09:29:22;97730.16;;;17.87;100.00
74868;BME280;63419;42.262;12.210;2022-11-15T09:31:52;97721.41;;;18.82;100.00
74868;BME280;63419;42.262;12.210;2022-11-15T09:34:22;97720.44;;;19.83;100.00
74868;BME280;63419;42.262;12.210;2022-11-15T09:36:51;97715.00;;;19.76;100.00
74868;BME280;63419;42.262;12.210;2022-11-15T09:39:19;97720.59;;;20.26;100.00
74868;BME280;63419;42.262;12.210;2022-11-15T09:45:50;97719.84;;;20.15;100.00
74868;BME280;63419;42.262;12.210;2022-11-15T09:48:51;97711.34;;;20.13;100.00
74868;BME280;63419;42.262;12.210;2022-11-15T09:51:34;97715.50;;;19.62;100.00
74868;BME280;63419;42.262;12.210;2022-11-15T09:57:24;97699.06;;;19.52;100.00
74868;BME280;63419;42.262;12.210;2022-11-15T10:00:37;97689.03;;;19.83;100.00
74868;BME280;63419;42.262;12.210;2022-11-15T10:03:34;97695.75;;;20.38;100.00
74868;BME280;63419;42.262;12.210;2022-11-15T10:06:23;97692.63;;;19.28;100.00
74868;BME280;63419;42.262;12.210;2022-11-15T10:09:12;97683.69;;;19.03;100.00
74868;BME280;63419;42.262;12.210;2022-11-15T10:11:51;97676.88;;;20.00;100.00
74868;BME280;63419;42.262;12.210;2022-11-15T10:14:24;97675.03;;;20.53;100.00
74868;BME280;63419;42.262;12.210;2022-11-15T10:20:30;97669.72;;;20.10;100.00
74868;BME280;63419;42.262;12.210;2022-11-15T10:23:11;97658.09;;;21.57;100.00
74868;BME280;63419;42.262;12.210;2022-11-15T10:25:43;97653.47;;;21.35;100.00
74868;BME280;63419;42.262;12.210;2022-11-15T10:28:34;97643.88;;;22.32;100.00
74868;BME280;63419;42.262;12.210;2022-11-15T10:31:03;97636.03;;;22.95;100.00
74868;BME280;63419;42.262;12.210;2022-11-15T10:33:37;97629.53;;;23.37;100.00
74868;BME280;63419;42.262;12.210;2022-11-15T10:36:22;97628.06;;;23.49;100.00
74868;BME280;63419;42.262;12.210;2022-11-15T10:39:05;97624.38;;;23.82;100.00
74868;BME280;63419;42.262;12.210;2022-11-15T10:41:40;97616.38;;;22.83;100.00
74868;BME280;63419;42.262;12.210;2022-11-15T10:44:43;97609.84;;;24.01;100.00
74868;BME280;63419;42.262;12.210;2022-11-15T10:47:29;97603.53;;;23.34;100.00
74868;BME280;63419;42.262;12.210;2022-11-15T10:50:31;97600.13;;;23.48;100.00
74868;BME280;63419;42.262;12.210;2022-11-15T10:53:01;97612.59;;;19.80;100.00
74868;BME280;63419;42.262;12.210;2022-11-15T10:55:32;97611.00;;;20.56;100.00
74868;BME280;63419;42.262;12.210;2022-11-15T10:58:42;97599.19;;;21.27;100.00
74868;BME280;63419;42.262;12.210;2022-11-15T11:01:19;97592.94;;;21.44;100.00
74868;BME280;63419;42.262;12.210;2022-11-15T11:04:03;97585.72;;;21.71;100.00
74868;BME280;63419;42.262;12.210;2022-11-15T11:06:57;97587.50;;;20.80;100.00
74868;BME280;63419;42.262;12.210;2022-11-15T11:09:38;97583.25;;;21.37;100.00
74868;BME280;63419;42.262;12.210;2022-11-15T11:12:13;97581.59;;;20.86;100.00
74868;BME280;63419;42.262;12.210;2022-11-15T11:14:49;97573.75;;;21.52;100.00
74868;BME280;63419;42.262;12.210;2022-11-15T11:17:32;97565.22;;;21.42;100.00
74868;BME280;63419;42.262;12.210;2022-11-15T11:20:29;97569.16;;;21.05;100.00
74868;BME280;63419;42.262;12.210;2022-11-15T11:29:45;97545.22;;;21.16;100.00
74868;BME280;63419;42.262;12.210;2022-11-15T11:47:52;97527.63;;;20.59;100.00
74868;BME280;63419;42.262;12.210;2022-11-15T11:50:27;97532.84;;;20.59;100.00
74868;BME280;63419;42.262;12.210;2022-11-15T11:53:39;97529.75;;;20.64;100.00
74868;BME280;63419;42.262;12.210;2022-11-15T11:56:37;97536.91;;;18.06;100.00
74868;BME280;63419;42.262;12.210;2022-11-15T12:01:44;97531.44;;;18.00;100.00
74868;BME280;63419;42.262;12.210;2022-11-15T12:04:40;97516.22;;;19.57;100.00
74868;BME280;63419;42.262;12.210;2022-11-15T12:07:34;97518.72;;;19.32;100.00
74868;BME280;63419;42.262;12.210;2022-11-15T12:10:24;97513.03;;;19.19;100.00
74868;BME280;63419;42.262;12.210;2022-11-15T12:13:19;97515.78;;;19.96;100.00
74868;BME280;63419;42.262;12.210;2022-11-15T12:15:57;97500.16;;;20.21;100.00
74868;BME280;63419;42.262;12.210;2022-11-15T12:18:35;97492.69;;;20.34;100.00
74868;BME280;63419;42.262;12.210;2022-11-15T12:21:43;97500.13;;;19.70;100.00
74868;BME280;63419;42.262;12.210;2022-11-15T12:24:34;97494.31;;;19.06;100.00
74868;BME280;63419;42.262;12.210;2022-11-15T12:27:45;97497.94;;;19.65;100.00
74868;BME280;63419;42.262;12.210;2022-11-15T12:30:22;97496.50;;;19.97;100.00
74868;BME280;63419;42.262;12.210;2022-11-15T12:33:01;97501.56;;;17.84;100.00
74868;BME280;63419;42.262;12.210;2022-11-15T12:35:42;97502.56;;;16.68;100.00
74868;BME280;63419;42.262;12.210;2022-11-15T12:41:43;97491.59;;;17.70;100.00
74868;BME280;63419;42.262;12.210;2022-11-15T12:47:22;97490.34;;;17.27;100.00
74868;BME280;63419;42.262;12.210;2022-11-15T12:49:53;97486.25;;;17.62;100.00
74868;BME280;63419;42.262;12.210;2022-11-15T12:52:29;97484.88;;;18.23;100.00
74868;BME280;63419;42.262;12.210;2022-11-15T12:55:02;97477.56;;;18.26;100.00
74868;BME280;63419;42.262;12.210;2022-11-15T12:57:38;97472.16;;;18.38;100.00
74868;BME280;63419;42.262;12.210;2022-11-15T13:03:21;97453.69;;;18.75;100.00
74868;BME280;63419;42.262;12.210;2022-11-15T13:05:58;97443.84;;;18.33;100.00
74868;BME280;63419;42.262;12.210;2022-11-15T13:08:45;97448.28;;;18.05;100.00
74868;BME280;63419;42.262;12.210;2022-11-15T13:11:49;97441.16;;;18.25;100.00
74868;BME280;63419;42.262;12.210;2022-11-15T13:14:57;97454.75;;;17.73;100.00
74868;BME280;63419;42.262;12.210;2022-11-15T13:17:37;97444.66;;;18.52;100.00
74868;BME280;63419;42.262;12.210;2022-11-15T13:20:17;97438.25;;;18.46;100.00
74868;BME280;63419;42.262;12.210;2022-11-15T13:28:47;97440.84;;;18.28;100.00
74868;BME280;63419;42.262;12.210;2022-11-15T13:31:42;97434.38;;;18.86;100.00
74868;BME280;63419;42.262;12.210;2022-11-15T13:34:35;97430.03;;;18.41;100.00
74868;BME280;63419;42.262;12.210;2022-11-15T13:39:51;97421.91;;;18.08;100.00
74868;BME280;63419;42.262;12.210;2022-11-15T13:42:22;97428.25;;;17.68;100.00
74868;BME280;63419;42.262;12.210;2022-11-15T13:45:04;97429.78;;;17.70;100.00
74868;BME280;63419;42.262;12.210;2022-11-15T13:47:35;97408.16;;;17.78;100.00
74868;BME280;63419;42.262;12.210;2022-11-15T13:50:16;97404.19;;;17.19;100.00
74868;BME280;63419;42.262;12.210;2022-11-15T13:52:51;97398.31;;;17.17;100.00
74868;BME280;63419;42.262;12.210;2022-11-15T13:55:24;97402.22;;;18.32;100.00
74868;BME280;63419;42.262;12.210;2022-11-15T13:58:02;97397.91;;;17.39;100.00
74868;BME280;63419;42.262;12.210;2022-11-15T14:00:43;97398.25;;;18.27;100.00
74868;BME280;63419;42.262;12.210;2022-11-15T14:03:41;97392.66;;;18.22;100.00
74868;BME280;63419;42.262;12.210;2022-11-15T14:06:18;97399.31;;;18.35;100.00
74868;BME280;63419;42.262;12.210;2022-11-15T14:11:55;97391.91;;;18.12;100.00
74868;BME280;63419;42.262;12.210;2022-11-15T14:14:28;97393.19;;;17.80;100.00
74868;BME280;63419;42.262;12.210;2022-11-15T14:17:01;97389.03;;;18.77;100.00
74868;BME280;63419;42.262;12.210;2022-11-15T14:22:34;97390.69;;;18.60;100.00
74868;BME280;63419;42.262;12.210;2022-11-15T14:25:25;97380.75;;;18.82;100.00
74868;BME280;63419;42.262;12.210;2022-11-15T14:28:29;97374.72;;;18.63;100.00
74868;BME280;63419;42.262;12.210;2022-11-15T14:31:11;97380.34;;;17.97;100.00
74868;BME280;63419;42.262;12.210;2022-11-15T14:33:41;97378.34;;;18.71;100.00
74868;BME280;63419;42.262;12.210;2022-11-15T14:36:20;97376.28;;;17.84;100.00
74868;BME280;63419;42.262;12.210;2022-11-15T14:38:50;97373.00;;;18.54;100.00
74868;BME280;63419;42.262;12.210;2022-11-15T14:41:23;97369.78;;;18.60;100.00
74868;BME280;63419;42.262;12.210;2022-11-15T14:43:52;97367.28;;;17.13;100.00
74868;BME280;63419;42.262;12.210;2022-11-15T14:46:19;97359.06;;;17.46;100.00
74868;BME280;63419;42.262;12.210;2022-11-15T14:48:47;97356.69;;;17.98;100.00
74868;BME280;63419;42.262;12.210;2022-11-15T14:51:20;97355.69;;;18.53;100.00
74868;BME280;63419;42.262;12.210;2022-11-15T14:53:49;97339.69;;;18.12;100.00
74868;BME280;63419;42.262;12.210;2022-11-15T14:56:20;97346.19;;;18.96;100.00